createdAt,value
2022-09-23T00:00:49.508Z,8.63
2022-09-23T00:03:17.354Z,8.80
2022-09-23T00:05:44.859Z,9.55
2022-09-23T00:08:12.820Z,9.68
2022-09-23T00:10:40.858Z,9.65
2022-09-23T00:13:08.862Z,10.10
2022-09-23T00:15:40.419Z,11.55
2022-09-23T00:18:08.017Z,8.73
2022-09-23T00:20:36.135Z,13.57
2022-09-23T00:23:03.884Z,9.63
2022-09-23T00:25:31.309Z,10.57
2022-09-23T00:27:59.594Z,9.45
2022-09-23T00:30:27.206Z,10.23
2022-09-23T00:32:56.724Z,8.68
2022-09-23T00:35:24.216Z,9.48
2022-09-23T00:37:51.718Z,9.02
2022-09-23T00:40:19.254Z,8.45
2022-09-23T00:42:48.379Z,9.40
2022-09-23T00:45:16.273Z,8.18
2022-09-23T00:47:47.945Z,9.13
2022-09-23T00:50:19.762Z,12.77
2022-09-23T00:52:47.460Z,9.13
2022-09-23T00:55:17.488Z,8.55
2022-09-23T00:57:46.259Z,7.97
2022-09-23T01:00:14.011Z,7.40
2022-09-23T01:02:41.553Z,7.85
2022-09-23T01:05:09.444Z,9.50
2022-09-23T01:07:38.234Z,9.05
2022-09-23T01:10:06.529Z,10.20
2022-09-23T01:12:51.750Z,8.90
2022-09-23T01:15:20.714Z,8.90
2022-09-23T01:17:51.139Z,9.23
2022-09-23T01:20:37.979Z,8.73
2022-09-23T01:23:13.997Z,11.00
2022-09-23T01:25:52.044Z,9.30
2022-09-23T01:28:29.030Z,8.82
2022-09-23T01:30:59.442Z,9.63
2022-09-23T01:33:31.791Z,9.05
2022-09-23T01:36:05.585Z,9.85
2022-09-23T01:38:36.424Z,9.75
2022-09-23T01:41:06.076Z,9.20
2022-09-23T01:43:37.376Z,9.75
2022-09-23T01:46:08.366Z,9.38
2022-09-23T01:48:38.381Z,9.15
2022-09-23T01:51:07.919Z,9.13
2022-09-23T01:53:39.184Z,8.75
2022-09-23T01:56:10.177Z,8.55
2022-09-23T01:58:41.081Z,9.25
2022-09-23T02:01:14.711Z,8.88
2022-09-23T02:03:45.059Z,9.90
2022-09-23T02:06:15.218Z,9.45
2022-09-23T02:08:44.891Z,9.30
2022-09-23T02:11:15.232Z,9.50
2022-09-23T02:13:46.287Z,10.82
2022-09-23T02:16:17.630Z,9.52
2022-09-23T02:21:15.343Z,9.57
2022-09-23T02:23:43.960Z,9.73
2022-09-23T02:26:14.902Z,9.63
2022-09-23T02:28:45.335Z,10.18
2022-09-23T02:31:17.224Z,9.95
2022-09-23T02:33:52.038Z,9.63
2022-09-23T02:36:21.656Z,9.40
2022-09-23T02:38:51.107Z,8.57
2022-09-23T02:41:22.059Z,10.10
2022-09-23T02:43:52.576Z,10.55
2022-09-23T02:46:20.264Z,9.27
2022-09-23T02:48:50.285Z,9.70
2022-09-23T02:51:17.724Z,9.27
2022-09-23T02:53:45.785Z,9.13
2022-09-23T02:56:15.448Z,10.10
2022-09-23T02:58:43.025Z,8.90
2022-09-23T03:01:16.323Z,10.00
2022-09-23T03:03:47.385Z,9.45
2022-09-23T03:06:25.111Z,9.90
2022-09-23T03:08:55.784Z,10.20
2022-09-23T03:11:24.619Z,9.75
2022-09-23T03:13:55.998Z,10.18
2022-09-23T03:16:29.240Z,11.07
2022-09-23T03:18:58.693Z,9.73
2022-09-23T03:21:30.485Z,10.90
2022-09-23T03:23:59.778Z,9.95
2022-09-23T03:26:29.485Z,10.95
2022-09-23T03:28:57.002Z,10.40
2022-09-23T03:31:24.531Z,10.00
2022-09-23T03:33:53.326Z,12.15
2022-09-23T03:36:40.860Z,11.48
2022-09-23T03:39:11.601Z,11.23
2022-09-23T03:41:42.181Z,11.23
2022-09-23T03:44:10.516Z,10.27
2022-09-23T03:46:38.122Z,10.88
2022-09-23T03:49:09.489Z,10.70
2022-09-23T03:51:38.045Z,10.05
2022-09-23T03:54:07.156Z,10.27
2022-09-23T03:56:36.760Z,10.35
2022-09-23T03:59:04.209Z,11.43
2022-09-23T04:01:31.593Z,10.77
2022-09-23T04:04:00.008Z,10.25
2022-09-23T04:06:27.458Z,10.00
2022-09-23T04:08:54.885Z,9.68
2022-09-23T04:11:22.322Z,11.43
2022-09-23T04:13:51.105Z,10.80
2022-09-23T04:16:18.789Z,9.98
2022-09-23T04:18:46.286Z,10.05
2022-09-23T04:21:13.778Z,9.68
2022-09-23T04:23:41.247Z,10.45
2022-09-23T04:26:08.716Z,9.80
2022-09-23T04:28:36.209Z,11.57
2022-09-23T04:31:06.475Z,10.45
2022-09-23T04:33:34.424Z,10.18
2022-09-23T04:36:01.947Z,10.02
2022-09-23T04:38:29.404Z,10.40
2022-09-23T04:40:56.856Z,10.43
2022-09-23T04:43:24.282Z,11.18
2022-09-23T04:45:58.628Z,9.65
2022-09-23T04:48:27.445Z,11.15
2022-09-23T04:50:54.875Z,11.25
2022-09-23T04:53:22.463Z,11.38
2022-09-23T04:55:51.693Z,10.35
2022-09-23T04:58:19.094Z,11.55
2022-09-23T05:00:46.942Z,10.52
2022-09-23T05:03:15.026Z,11.32
2022-09-23T05:05:43.813Z,10.77
2022-09-23T05:08:11.207Z,10.13
2022-09-23T05:10:38.626Z,10.13
2022-09-23T05:13:06.066Z,11.00
2022-09-23T05:15:33.746Z,10.55
2022-09-23T05:18:02.442Z,11.05
2022-09-23T05:20:29.874Z,13.15
2022-09-23T05:22:59.013Z,11.27
2022-09-23T05:25:26.443Z,10.73
2022-09-23T05:27:53.881Z,10.75
2022-09-23T05:30:21.330Z,11.57
2022-09-23T05:32:48.750Z,10.38
2022-09-23T05:35:16.268Z,11.38
2022-09-23T05:37:43.750Z,11.02
2022-09-23T05:40:12.737Z,13.93
2022-09-23T05:42:40.233Z,16.45
2022-09-23T05:45:08.500Z,10.30
2022-09-23T05:47:35.907Z,11.75
2022-09-23T05:50:03.428Z,13.77
2022-09-23T05:52:31.431Z,11.80
2022-09-23T05:54:58.893Z,9.98
2022-09-23T05:57:27.663Z,14.25
2022-09-23T05:59:55.057Z,12.05
2022-09-23T06:02:22.503Z,11.00
2022-09-23T06:04:49.904Z,9.25
2022-09-23T06:07:17.298Z,10.05
2022-09-23T06:09:45.390Z,9.50
2022-09-23T06:12:14.022Z,11.35
2022-09-23T06:14:42.968Z,10.73
2022-09-23T06:17:10.428Z,10.45
2022-09-23T06:19:37.904Z,11.40
2022-09-23T06:22:05.334Z,11.35
2022-09-23T06:24:32.778Z,8.50
2022-09-23T06:27:00.918Z,10.52
2022-09-23T06:29:29.851Z,10.18
2022-09-23T06:31:59.581Z,12.60
2022-09-23T06:34:27.122Z,12.07
2022-09-23T06:36:55.504Z,9.15
2022-09-23T06:39:23.016Z,9.70
2022-09-23T06:41:50.503Z,10.07
2022-09-23T06:44:17.879Z,9.48
2022-09-23T06:46:45.367Z,10.73
2022-09-23T06:49:14.270Z,11.13
2022-09-23T06:51:42.056Z,9.27
2022-09-23T06:54:09.638Z,10.00
2022-09-23T06:56:39.393Z,13.73
2022-09-23T06:59:07.539Z,12.45
2022-09-23T07:01:35.556Z,11.02
2022-09-23T07:04:03.160Z,10.90
2022-09-23T07:06:31.938Z,9.70
2022-09-23T07:09:00.847Z,11.93
2022-09-23T07:11:28.226Z,11.77
2022-09-23T07:13:55.634Z,8.70
2022-09-23T07:16:23.154Z,11.60
2022-09-23T07:18:51.965Z,8.50
2022-09-23T07:21:19.897Z,10.73
2022-09-23T07:23:50.199Z,9.27
2022-09-23T07:26:21.387Z,11.85
2022-09-23T07:28:48.882Z,9.57
2022-09-23T07:31:33.409Z,9.52
2022-09-23T07:34:17.650Z,8.93
2022-09-23T07:36:46.513Z,11.10
2022-09-23T07:39:15.572Z,16.67
2022-09-23T07:41:44.337Z,9.60
2022-09-23T07:44:12.545Z,13.25
2022-09-23T07:46:40.118Z,9.93
2022-09-23T07:49:07.951Z,10.45
2022-09-23T07:51:36.992Z,9.50
2022-09-23T07:54:07.215Z,10.35
2022-09-23T07:56:36.309Z,9.05
2022-09-23T07:59:04.451Z,9.02
2022-09-23T08:01:33.719Z,12.85
2022-09-23T08:04:02.474Z,12.20
2022-09-23T08:06:29.938Z,14.25
2022-09-23T08:08:58.468Z,14.02
2022-09-23T08:11:26.538Z,11.30
2022-09-23T08:13:55.961Z,9.70
2022-09-23T08:16:23.544Z,9.35
2022-09-23T08:18:51.133Z,11.85
2022-09-23T08:21:19.991Z,16.98
2022-09-23T08:23:47.533Z,10.57
2022-09-23T08:26:20.996Z,10.63
2022-09-23T08:28:49.578Z,9.52
2022-09-23T08:31:18.519Z,12.80
2022-09-23T08:33:46.402Z,9.23
2022-09-23T08:36:14.167Z,9.77
2022-09-23T08:38:41.640Z,9.05
2022-09-23T08:41:13.909Z,10.43
2022-09-23T08:43:46.402Z,8.32
2022-09-23T08:46:16.726Z,10.25
2022-09-23T08:48:47.138Z,10.83
2022-09-23T08:51:15.864Z,11.45
2022-09-23T08:53:45.452Z,8.15
2022-09-23T08:56:14.136Z,8.93
2022-09-23T08:58:49.328Z,11.57
2022-09-23T09:01:20.285Z,10.30
2022-09-23T09:03:51.806Z,9.50
2022-09-23T09:06:21.636Z,10.27
2022-09-23T09:08:53.943Z,12.90
2022-09-23T09:11:23.557Z,11.40
2022-09-23T09:13:54.335Z,9.25
2022-09-23T09:16:55.405Z,10.88
2022-09-23T09:19:20.103Z,12.07
2022-09-23T09:21:48.841Z,12.20
2022-09-23T09:24:18.621Z,8.68
2022-09-23T09:26:46.107Z,10.95
2022-09-23T09:32:14.166Z,10.63
2022-09-23T09:34:46.170Z,10.63
2022-09-23T09:37:16.617Z,11.73
2022-09-23T09:39:44.075Z,14.75
2022-09-23T09:42:14.679Z,11.32
2022-09-23T09:44:44.852Z,12.07
2022-09-23T09:47:16.789Z,8.75
2022-09-23T09:49:49.788Z,11.05
2022-09-23T09:52:22.232Z,9.65
2022-09-23T09:54:50.841Z,13.73
2022-09-23T09:57:20.175Z,8.18
2022-09-23T09:59:47.619Z,7.70
2022-09-23T10:02:23.159Z,11.38
2022-09-23T10:04:57.139Z,8.60
2022-09-23T10:07:28.316Z,8.52
2022-09-23T10:12:26.177Z,10.05
2022-09-23T10:14:57.009Z,9.90
2022-09-23T10:17:25.258Z,100.65
2022-09-23T10:20:00.204Z,15.57
2022-09-23T10:22:29.874Z,15.20
2022-09-23T10:24:59.448Z,12.80
2022-09-23T10:27:28.010Z,9.98
2022-09-23T10:29:56.975Z,8.93
2022-09-23T10:32:26.847Z,8.68
2022-09-23T10:34:57.908Z,11.93
2022-09-23T10:37:28.897Z,11.90
2022-09-23T10:40:14.098Z,10.85
2022-09-23T10:43:05.185Z,12.85
2022-09-23T10:45:51.955Z,11.60
2022-09-23T10:48:26.373Z,9.48
2022-09-23T10:50:58.178Z,10.90
2022-09-23T10:53:34.150Z,10.40
2022-09-23T10:56:15.047Z,10.85
2022-09-23T10:58:58.093Z,8.88
2022-09-23T11:01:30.912Z,8.45
2022-09-23T11:04:16.471Z,9.23
2022-09-23T11:06:51.597Z,8.23
2022-09-23T11:09:24.611Z,9.13
2022-09-23T11:12:01.407Z,10.80
2022-09-23T11:14:44.860Z,10.10
2022-09-23T11:17:26.982Z,7.07
2022-09-23T11:20:13.084Z,8.88
2022-09-23T11:22:58.620Z,8.20
2022-09-23T11:25:31.645Z,7.82
2022-09-23T11:28:07.206Z,8.68
2022-09-23T11:30:40.725Z,9.25
2022-09-23T11:33:14.530Z,7.45
2022-09-23T11:35:45.792Z,11.57
2022-09-23T11:40:45.554Z,9.32
2022-09-23T11:43:18.377Z,8.70
2022-09-23T11:45:48.112Z,9.85
2022-09-23T11:48:17.882Z,9.00
2022-09-23T11:50:49.699Z,8.05
2022-09-23T11:53:21.515Z,9.20
2022-09-23T11:55:57.927Z,8.52
2022-09-23T11:58:29.162Z,8.77
2022-09-23T12:01:01.321Z,9.75
2022-09-23T12:03:43.462Z,7.63
2022-09-23T12:06:15.098Z,9.20
2022-09-23T12:08:43.522Z,7.40
2022-09-23T12:11:22.908Z,8.57
2022-09-23T12:13:52.988Z,8.85
2022-09-23T12:16:44.064Z,8.15
2022-09-23T12:19:18.818Z,9.63
2022-09-23T12:21:52.038Z,7.82
2022-09-23T12:24:27.589Z,8.23
2022-09-23T12:26:58.307Z,11.27
2022-09-23T12:32:00.099Z,9.10
2022-09-23T12:34:30.564Z,10.55
2022-09-23T12:37:02.929Z,8.52
2022-09-23T12:39:31.490Z,9.18
2022-09-23T12:42:00.139Z,9.07
2022-09-23T12:44:32.294Z,9.02
2022-09-23T12:47:14.674Z,7.82
2022-09-23T12:49:42.603Z,7.53
2022-09-23T12:52:13.993Z,8.05
2022-09-23T12:54:42.005Z,9.35
2022-09-23T12:57:12.669Z,10.15
2022-09-23T12:59:55.694Z,8.65
2022-09-23T13:02:34.489Z,7.88
2022-09-23T13:05:36.436Z,9.05
2022-09-23T13:08:05.783Z,7.60
2022-09-23T13:10:34.728Z,6.50
2022-09-23T13:13:03.224Z,8.30
2022-09-23T13:15:34.067Z,6.45
2022-09-23T13:18:20.399Z,7.00
2022-09-23T13:20:48.703Z,9.48
2022-09-23T13:23:25.152Z,9.82
2022-09-23T13:25:53.714Z,9.35
2022-09-23T13:28:29.068Z,9.80
2022-09-23T13:30:58.424Z,7.90
2022-09-23T13:33:30.642Z,5.93
2022-09-23T13:36:02.181Z,6.85
2022-09-23T13:38:31.886Z,7.13
2022-09-23T13:41:01.026Z,8.02
2022-09-23T13:43:31.697Z,7.60
2022-09-23T13:46:01.437Z,8.02
2022-09-23T13:48:29.496Z,7.35
2022-09-23T13:50:57.046Z,7.35
2022-09-23T13:53:25.512Z,8.25
2022-09-23T13:56:03.022Z,9.30
2022-09-23T13:58:31.029Z,8.05
2022-09-23T14:01:01.046Z,9.27
2022-09-23T14:03:36.115Z,8.25
2022-09-23T14:06:05.803Z,8.55
2022-09-23T14:08:33.554Z,6.82
2022-09-23T14:11:01.213Z,8.13
2022-09-23T14:13:30.056Z,7.82
2022-09-23T14:15:59.290Z,10.35
2022-09-23T14:18:39.173Z,7.95
2022-09-23T14:21:07.239Z,7.70
2022-09-23T14:23:34.694Z,7.40
2022-09-23T14:26:02.557Z,5.80
2022-09-23T14:28:30.104Z,5.63
2022-09-23T14:30:58.515Z,10.70
2022-09-23T14:33:28.205Z,6.95
2022-09-23T14:35:59.193Z,8.00
2022-09-23T14:38:45.860Z,8.45
2022-09-23T14:41:21.909Z,7.82
2022-09-23T14:43:50.753Z,8.45
2022-09-23T14:46:19.586Z,5.88
2022-09-23T14:48:54.381Z,7.00
2022-09-23T14:51:30.274Z,6.40
2022-09-23T14:54:17.728Z,5.63
2022-09-23T14:56:45.270Z,10.45
2022-09-23T14:59:24.848Z,6.90
2022-09-23T15:01:52.514Z,5.72
2022-09-23T15:04:30.352Z,7.15
2022-09-23T15:07:03.362Z,6.35
2022-09-23T15:09:32.229Z,6.50
2022-09-23T15:12:01.235Z,9.50
2022-09-23T15:14:39.253Z,7.93
2022-09-23T15:17:14.566Z,6.80
2022-09-23T15:19:42.270Z,7.90
2022-09-23T15:22:11.175Z,6.90
2022-09-23T15:24:40.961Z,7.75
2022-09-23T15:27:12.696Z,9.45
2022-09-23T15:29:40.460Z,11.32
2022-09-23T15:32:08.533Z,6.95
2022-09-23T15:34:36.963Z,7.55
2022-09-23T15:37:05.177Z,10.27
2022-09-23T15:39:36.268Z,8.02
2022-09-23T15:42:04.125Z,9.20
2022-09-23T15:44:31.711Z,6.22
2022-09-23T15:47:01.132Z,11.45
2022-09-23T15:49:30.296Z,6.95
2022-09-23T15:51:59.721Z,8.57
2022-09-23T15:54:27.503Z,8.73
2022-09-23T15:56:56.782Z,6.47
2022-09-23T15:59:26.172Z,7.47
2022-09-23T16:01:54.424Z,10.73
2022-09-23T16:04:21.960Z,10.32
2022-09-23T16:06:49.460Z,7.57
2022-09-23T16:09:16.948Z,11.23
2022-09-23T16:11:46.050Z,9.52
2022-09-23T16:14:15.991Z,9.57
2022-09-23T16:16:45.240Z,7.72
2022-09-23T16:19:13.197Z,9.50
2022-09-23T16:21:41.466Z,11.85
2022-09-23T16:24:13.615Z,8.15
2022-09-23T16:26:43.155Z,10.70
2022-09-23T16:29:11.395Z,9.18
2022-09-23T16:31:40.324Z,8.82
2022-09-23T16:34:08.556Z,6.95
2022-09-23T16:36:39.498Z,11.05
2022-09-23T16:39:07.968Z,7.90
2022-09-23T16:41:35.695Z,10.93
2022-09-23T16:44:04.774Z,11.30
2022-09-23T16:46:32.475Z,8.55
2022-09-23T16:49:01.456Z,11.00
2022-09-23T16:51:29.843Z,10.10
2022-09-23T16:53:58.353Z,9.80
2022-09-23T16:56:28.830Z,8.63
2022-09-23T16:58:57.172Z,9.48
2022-09-23T17:01:43.266Z,8.45
2022-09-23T17:04:15.702Z,8.15
2022-09-23T17:06:44.113Z,9.63
2022-09-23T17:09:12.087Z,9.43
2022-09-23T17:11:39.647Z,10.35
2022-09-23T17:14:07.401Z,9.70
2022-09-23T17:16:35.769Z,8.95
2022-09-23T17:19:07.315Z,7.43
2022-09-23T17:21:36.371Z,7.75
2022-09-23T17:24:04.764Z,8.68
2022-09-23T17:26:32.601Z,9.30
2022-09-23T17:29:01.518Z,10.70
2022-09-23T17:31:29.537Z,8.75
2022-09-23T17:33:57.144Z,8.10
2022-09-23T17:36:24.714Z,8.70
2022-09-23T17:38:54.395Z,7.20
2022-09-23T17:41:22.363Z,8.77
2022-09-23T17:43:54.556Z,8.02
2022-09-23T17:46:22.094Z,8.93
2022-09-23T17:48:55.456Z,8.57
2022-09-23T17:51:22.936Z,9.35
2022-09-23T17:53:50.899Z,7.70
2022-09-23T17:56:20.543Z,12.18
2022-09-23T17:58:48.894Z,9.98
2022-09-23T18:01:17.878Z,12.73
2022-09-23T18:03:49.569Z,9.65
2022-09-23T18:06:19.025Z,10.73
2022-09-23T18:08:48.029Z,10.20
2022-09-23T18:11:18.583Z,12.73
2022-09-23T18:13:54.498Z,10.55
2022-09-23T18:16:23.799Z,8.32
2022-09-23T18:18:52.612Z,9.60
2022-09-23T18:21:21.808Z,9.65
2022-09-23T18:23:54.534Z,10.45
2022-09-23T18:26:24.500Z,10.60
2022-09-23T18:28:57.029Z,10.43
2022-09-23T18:31:34.223Z,12.40
2022-09-23T18:34:12.400Z,11.90
2022-09-23T18:40:35.010Z,10.80
2022-09-23T18:43:03.207Z,12.93
2022-09-23T18:45:32.102Z,11.57
2022-09-23T18:48:17.107Z,11.75
2022-09-23T18:50:44.714Z,10.90
2022-09-23T18:53:12.161Z,13.65
2022-09-23T18:55:40.632Z,11.98
2022-09-23T18:58:08.144Z,13.07
2022-09-23T19:00:37.082Z,11.18
2022-09-23T19:03:04.862Z,15.82
2022-09-23T19:05:33.756Z,12.32
2022-09-23T19:08:01.194Z,15.57
2022-09-23T19:10:28.652Z,15.30
2022-09-23T19:12:56.090Z,18.25
2022-09-23T19:15:23.512Z,15.27
2022-09-23T19:17:52.960Z,20.02
2022-09-23T19:20:20.748Z,18.50
2022-09-23T19:22:48.340Z,17.88
2022-09-23T19:25:16.562Z,14.45
2022-09-23T19:27:44.036Z,14.63
2022-09-23T19:30:12.001Z,15.45
2022-09-23T19:32:40.316Z,15.10
2022-09-23T19:35:10.087Z,16.92
2022-09-23T19:37:38.222Z,18.40
2022-09-23T19:40:06.328Z,19.30
2022-09-23T19:42:35.224Z,16.63
2022-09-23T19:45:02.904Z,18.25
2022-09-23T19:47:30.999Z,20.55
2022-09-23T19:49:58.440Z,17.50
2022-09-23T19:52:27.270Z,18.48
2022-09-23T19:54:54.720Z,21.67
2022-09-23T19:57:22.124Z,19.95
2022-09-23T19:59:50.276Z,18.55
2022-09-23T20:02:17.724Z,19.20
2022-09-23T20:04:45.132Z,21.40
2022-09-23T20:07:12.532Z,20.77
2022-09-23T20:09:41.331Z,19.35
2022-09-23T20:12:08.855Z,21.33
2022-09-23T20:14:36.321Z,20.10
2022-09-23T20:17:03.742Z,23.15
2022-09-23T20:19:31.269Z,23.65
2022-09-23T20:22:15.941Z,22.25
2022-09-23T20:24:44.709Z,25.20
2022-09-23T20:27:11.249Z,24.10
2022-09-23T20:29:38.716Z,25.00
2022-09-23T20:32:06.189Z,24.63
2022-09-23T20:34:33.882Z,27.55
2022-09-23T20:37:01.319Z,24.50
2022-09-23T20:39:29.052Z,26.75
2022-09-23T20:41:58.297Z,26.90
2022-09-23T20:44:25.704Z,26.08
2022-09-23T20:46:53.169Z,26.95
2022-09-23T20:49:20.753Z,27.35
2022-09-23T20:51:48.777Z,27.77
2022-09-23T20:54:16.353Z,28.92
2022-09-23T20:56:43.765Z,28.00
2022-09-23T20:59:14.731Z,31.73
2022-09-23T21:01:42.602Z,26.08
2022-09-23T21:04:10.120Z,30.45
2022-09-23T21:06:38.788Z,29.70
2022-09-23T21:09:06.774Z,33.03
2022-09-23T21:11:34.193Z,31.23
2022-09-23T21:14:02.421Z,28.77
2022-09-23T21:16:31.265Z,27.75
2022-09-23T21:18:59.036Z,30.67
2022-09-23T21:21:26.888Z,32.20
2022-09-23T21:23:54.356Z,31.25
2022-09-23T21:26:23.067Z,32.60
2022-09-23T21:28:51.394Z,29.42
2022-09-23T21:31:23.682Z,32.33
2022-09-23T21:33:56.327Z,30.02
2022-09-23T21:36:24.625Z,32.05
2022-09-23T21:38:52.531Z,32.60
2022-09-23T21:41:20.431Z,30.73
2022-09-23T21:43:49.440Z,30.95
2022-09-23T21:46:20.017Z,35.08
2022-09-23T21:48:49.806Z,30.08
2022-09-23T21:51:20.156Z,33.78
2022-09-23T21:53:48.258Z,33.13
2022-09-23T21:56:20.539Z,44.45
2022-09-23T21:58:48.531Z,36.20
2022-09-23T22:01:17.049Z,34.78
2022-09-23T22:03:45.086Z,36.30
2022-09-23T22:06:13.724Z,36.33
2022-09-23T22:08:44.205Z,37.92
2022-09-23T22:11:33.190Z,36.95
2022-09-23T22:14:01.890Z,35.55
2022-09-23T22:16:29.667Z,36.63
2022-09-23T22:18:58.153Z,37.58
2022-09-23T22:21:26.690Z,43.88
2022-09-23T22:23:56.962Z,38.08
2022-09-23T22:26:24.711Z,42.33
2022-09-23T22:29:09.575Z,36.28
2022-09-23T22:31:54.457Z,43.47
2022-09-23T22:34:47.917Z,40.95
2022-09-23T22:37:11.303Z,43.10
2022-09-23T22:39:40.157Z,39.63
2022-09-23T22:42:08.168Z,46.83
2022-09-23T22:44:35.589Z,45.08
2022-09-23T22:47:03.372Z,43.47
2022-09-23T22:49:32.170Z,44.53
2022-09-23T22:51:59.605Z,42.70
2022-09-23T22:54:32.707Z,44.95
2022-09-23T22:57:04.289Z,41.58
2022-09-23T22:59:31.720Z,40.15
2022-09-23T23:02:00.160Z,42.10
2022-09-23T23:04:28.460Z,39.70
2022-09-23T23:06:55.914Z,36.53
2022-09-23T23:09:23.379Z,37.13
2022-09-23T23:11:50.871Z,34.72
2022-09-23T23:14:19.904Z,39.67
2022-09-23T23:16:47.672Z,35.83
2022-09-23T23:19:16.857Z,41.22
2022-09-23T23:21:45.251Z,37.47
2022-09-23T23:24:15.152Z,33.03
2022-09-23T23:26:42.740Z,32.63
2022-09-23T23:29:11.150Z,32.88
2022-09-23T23:31:40.350Z,33.38
2022-09-23T23:34:09.140Z,33.67
2022-09-23T23:36:36.603Z,30.58
2022-09-23T23:39:04.141Z,30.55
2022-09-23T23:41:31.599Z,33.20
2022-09-23T23:44:00.080Z,31.45
2022-09-23T23:46:28.399Z,32.08
2022-09-23T23:48:57.595Z,32.80
2022-09-23T23:51:26.231Z,32.03
2022-09-23T23:53:54.152Z,29.13
2022-09-23T23:56:22.437Z,32.70
2022-09-23T23:58:54.076Z,32.17
